sensor_id;sensor_type;location;lat;lon;timestamp;temperature;humidity
23579;DHT22;11967;50.852;4.400;2023-05-27T00:01:14;17.80;99.90
23579;DHT22;11967;50.852;4.400;2023-05-27T00:03:41;17.70;99.90
23579;DHT22;11967;50.852;4.400;2023-05-27T00:06:06;17.70;99.90
23579;DHT22;11967;50.852;4.400;2023-05-27T00:08:32;17.70;99.90
23579;DHT22;11967;50.852;4.400;2023-05-27T00:10:57;17.60;99.90
23579;DHT22;11967;50.852;4.400;2023-05-27T00:13:23;17.60;99.90
23579;DHT22;11967;50.852;4.400;2023-05-27T00:15:49;17.60;99.90
23579;DHT22;11967;50.852;4.400;2023-05-27T00:18:15;17.60;99.90
23579;DHT22;11967;50.852;4.400;2023-05-27T00:20:40;17.50;99.90
23579;DHT22;11967;50.852;4.400;2023-05-27T00:23:09;17.50;99.90
23579;DHT22;11967;50.852;4.400;2023-05-27T00:25:35;17.40;99.90
23579;DHT22;11967;50.852;4.400;2023-05-27T00:28:01;17.40;99.90
23579;DHT22;11967;50.852;4.400;2023-05-27T00:30:27;17.40;99.90
23579;DHT22;11967;50.852;4.400;2023-05-27T00:32:52;17.40;99.90
23579;DHT22;11967;50.852;4.400;2023-05-27T00:35:18;17.40;99.90
23579;DHT22;11967;50.852;4.400;2023-05-27T00:37:43;17.40;99.90
23579;DHT22;11967;50.852;4.400;2023-05-27T00:40:10;17.30;99.90
23579;DHT22;11967;50.852;4.400;2023-05-27T00:42:36;17.30;99.90
23579;DHT22;11967;50.852;4.400;2023-05-27T00:45:34;17.20;99.90
23579;DHT22;11967;50.852;4.400;2023-05-27T00:48:02;17.10;99.90
23579;DHT22;11967;50.852;4.400;2023-05-27T00:50:28;17.20;99.90
23579;DHT22;11967;50.852;4.400;2023-05-27T00:52:54;17.20;99.90
23579;DHT22;11967;50.852;4.400;2023-05-27T00:55:26;17.10;99.90
23579;DHT22;11967;50.852;4.400;2023-05-27T00:57:52;17.10;99.90
23579;DHT22;11967;50.852;4.400;2023-05-27T01:00:22;17.00;99.90
23579;DHT22;11967;50.852;4.400;2023-05-27T01:02:48;17.00;99.90
23579;DHT22;11967;50.852;4.400;2023-05-27T01:05:15;17.00;99.90
23579;DHT22;11967;50.852;4.400;2023-05-27T01:13:39;16.90;99.90
23579;DHT22;11967;50.852;4.400;2023-05-27T01:16:17;16.90;99.90
23579;DHT22;11967;50.852;4.400;2023-05-27T01:18:46;16.90;99.90
23579;DHT22;11967;50.852;4.400;2023-05-27T01:21:15;16.90;99.90
23579;DHT22;11967;50.852;4.400;2023-05-27T01:23:43;16.80;99.90
23579;DHT22;11967;50.852;4.400;2023-05-27T01:26:09;16.80;99.90
23579;DHT22;11967;50.852;4.400;2023-05-27T01:28:36;16.80;99.90
23579;DHT22;11967;50.852;4.400;2023-05-27T01:33:49;16.70;99.90
23579;DHT22;11967;50.852;4.400;2023-05-27T01:36:22;16.70;99.90
23579;DHT22;11967;50.852;4.400;2023-05-27T01:38:49;16.60;99.90
23579;DHT22;11967;50.852;4.400;2023-05-27T01:41:17;16.60;99.90
23579;DHT22;11967;50.852;4.400;2023-05-27T01:43:43;16.60;99.90
23579;DHT22;11967;50.852;4.400;2023-05-27T01:46:09;16.70;99.90
23579;DHT22;11967;50.852;4.400;2023-05-27T01:48:35;16.70;99.90
23579;DHT22;11967;50.852;4.400;2023-05-27T01:51:00;16.70;99.90
23579;DHT22;11967;50.852;4.400;2023-05-27T01:53:26;16.70;99.90
23579;DHT22;11967;50.852;4.400;2023-05-27T01:55:52;16.60;99.90
23579;DHT22;11967;50.852;4.400;2023-05-27T01:58:17;16.60;99.90
23579;DHT22;11967;50.852;4.400;2023-05-27T02:00:43;16.60;99.90
23579;DHT22;11967;50.852;4.400;2023-05-27T02:03:08;16.50;99.90
23579;DHT22;11967;50.852;4.400;2023-05-27T02:05:34;16.50;99.90
23579;DHT22;11967;50.852;4.400;2023-05-27T02:08:01;16.40;99.90
23579;DHT22;11967;50.852;4.400;2023-05-27T02:10:28;16.40;99.90
23579;DHT22;11967;50.852;4.400;2023-05-27T02:12:53;16.40;99.90
23579;DHT22;11967;50.852;4.400;2023-05-27T02:15:19;16.30;99.90
23579;DHT22;11967;50.852;4.400;2023-05-27T02:17:49;16.30;99.90
23579;DHT22;11967;50.852;4.400;2023-05-27T02:20:23;16.30;99.90
23579;DHT22;11967;50.852;4.400;2023-05-27T02:22:52;16.30;99.90
23579;DHT22;11967;50.852;4.400;2023-05-27T02:25:18;16.20;99.90
23579;DHT22;11967;50.852;4.400;2023-05-27T02:27:44;16.20;99.90
23579;DHT22;11967;50.852;4.400;2023-05-27T02:30:14;16.20;99.90
23579;DHT22;11967;50.852;4.400;2023-05-27T02:32:40;16.20;99.90
23579;DHT22;11967;50.852;4.400;2023-05-27T02:35:06;16.20;99.90
23579;DHT22;11967;50.852;4.400;2023-05-27T02:37:34;16.20;99.90
23579;DHT22;11967;50.852;4.400;2023-05-27T02:40:00;16.20;99.90
23579;DHT22;11967;50.852;4.400;2023-05-27T02:42:25;16.10;99.90
23579;DHT22;11967;50.852;4.400;2023-05-27T02:44:51;16.10;99.90
23579;DHT22;11967;50.852;4.400;2023-05-27T02:47:17;16.10;99.90
23579;DHT22;11967;50.852;4.400;2023-05-27T02:49:42;16.10;99.90
23579;DHT22;11967;50.852;4.400;2023-05-27T02:52:08;16.00;99.90
23579;DHT22;11967;50.852;4.400;2023-05-27T02:54:34;16.00;99.90
23579;DHT22;11967;50.852;4.400;2023-05-27T02:56:59;16.00;99.90
23579;DHT22;11967;50.852;4.400;2023-05-27T02:59:26;16.00;99.90
23579;DHT22;11967;50.852;4.400;2023-05-27T03:01:51;15.90;99.90
23579;DHT22;11967;50.852;4.400;2023-05-27T03:04:17;15.90;99.90
23579;DHT22;11967;50.852;4.400;2023-05-27T03:06:44;15.80;99.90
23579;DHT22;11967;50.852;4.400;2023-05-27T03:09:10;15.90;99.90
23579;DHT22;11967;50.852;4.400;2023-05-27T03:11:36;15.80;99.90
23579;DHT22;11967;50.852;4.400;2023-05-27T03:14:02;15.80;99.90
23579;DHT22;11967;50.852;4.400;2023-05-27T03:16:28;15.80;99.90
23579;DHT22;11967;50.852;4.400;2023-05-27T03:18:54;15.80;99.90
23579;DHT22;11967;50.852;4.400;2023-05-27T03:21:19;15.80;99.90
23579;DHT22;11967;50.852;4.400;2023-05-27T03:23:45;15.80;99.90
23579;DHT22;11967;50.852;4.400;2023-05-27T03:26:11;15.70;99.90
23579;DHT22;11967;50.852;4.400;2023-05-27T03:28:37;15.70;99.90
23579;DHT22;11967;50.852;4.400;2023-05-27T03:31:02;15.70;99.90
23579;DHT22;11967;50.852;4.400;2023-05-27T03:33:28;15.80;99.90
23579;DHT22;11967;50.852;4.400;2023-05-27T03:35:54;15.80;99.90
23579;DHT22;11967;50.852;4.400;2023-05-27T03:38:21;15.80;99.90
23579;DHT22;11967;50.852;4.400;2023-05-27T03:40:47;15.90;99.90
23579;DHT22;11967;50.852;4.400;2023-05-27T03:43:13;15.80;99.90
23579;DHT22;11967;50.852;4.400;2023-05-27T03:45:39;15.90;99.90
23579;DHT22;11967;50.852;4.400;2023-05-27T03:48:04;15.80;99.90
23579;DHT22;11967;50.852;4.400;2023-05-27T03:50:32;15.90;99.90
23579;DHT22;11967;50.852;4.400;2023-05-27T03:52:58;15.80;99.90
23579;DHT22;11967;50.852;4.400;2023-05-27T03:55:23;15.80;99.90
23579;DHT22;11967;50.852;4.400;2023-05-27T03:57:49;15.70;99.90
23579;DHT22;11967;50.852;4.400;2023-05-27T04:00:15;15.70;99.90
23579;DHT22;11967;50.852;4.400;2023-05-27T04:02:42;15.60;99.90
23579;DHT22;11967;50.852;4.400;2023-05-27T04:05:08;15.60;99.90
23579;DHT22;11967;50.852;4.400;2023-05-27T04:07:34;15.50;99.90
23579;DHT22;11967;50.852;4.400;2023-05-27T04:09:59;15.40;99.90
23579;DHT22;11967;50.852;4.400;2023-05-27T04:12:25;15.40;99.90
23579;DHT22;11967;50.852;4.400;2023-05-27T04:14:51;15.40;99.90
23579;DHT22;11967;50.852;4.400;2023-05-27T04:17:16;15.40;99.90
23579;DHT22;11967;50.852;4.400;2023-05-27T04:19:43;15.40;99.90
23579;DHT22;11967;50.852;4.400;2023-05-27T04:22:08;15.50;99.90
23579;DHT22;11967;50.852;4.400;2023-05-27T04:24:34;15.40;99.90
23579;DHT22;11967;50.852;4.400;2023-05-27T04:27:00;15.40;99.90
23579;DHT22;11967;50.852;4.400;2023-05-27T04:29:28;15.40;99.90
23579;DHT22;11967;50.852;4.400;2023-05-27T04:31:53;15.40;99.90
23579;DHT22;11967;50.852;4.400;2023-05-27T04:34:19;15.40;99.90
23579;DHT22;11967;50.852;4.400;2023-05-27T04:36:45;15.30;99.90
23579;DHT22;11967;50.852;4.400;2023-05-27T04:39:15;15.30;99.90
23579;DHT22;11967;50.852;4.400;2023-05-27T04:41:40;15.20;99.90
23579;DHT22;11967;50.852;4.400;2023-05-27T04:44:06;15.30;99.90
23579;DHT22;11967;50.852;4.400;2023-05-27T04:46:32;15.30;99.90
23579;DHT22;11967;50.852;4.400;2023-05-27T04:48:58;15.30;99.90
23579;DHT22;11967;50.852;4.400;2023-05-27T04:51:25;15.20;99.90
23579;DHT22;11967;50.852;4.400;2023-05-27T04:53:50;15.20;99.90
23579;DHT22;11967;50.852;4.400;2023-05-27T04:56:16;15.20;99.90
23579;DHT22;11967;50.852;4.400;2023-05-27T04:58:43;15.20;99.90
23579;DHT22;11967;50.852;4.400;2023-05-27T05:01:12;15.20;99.90
23579;DHT22;11967;50.852;4.400;2023-05-27T05:03:46;15.30;99.90
23579;DHT22;11967;50.852;4.400;2023-05-27T05:06:28;15.40;99.90
23579;DHT22;11967;50.852;4.400;2023-05-27T05:08:53;15.20;99.90
23579;DHT22;11967;50.852;4.400;2023-05-27T05:11:19;15.20;99.90
23579;DHT22;11967;50.852;4.400;2023-05-27T05:13:45;15.20;99.90
23579;DHT22;11967;50.852;4.400;2023-05-27T05:16:12;15.30;99.90
23579;DHT22;11967;50.852;4.400;2023-05-27T05:18:37;15.30;99.90
23579;DHT22;11967;50.852;4.400;2023-05-27T05:21:03;15.30;99.90
23579;DHT22;11967;50.852;4.400;2023-05-27T05:23:30;15.30;99.90
23579;DHT22;11967;50.852;4.400;2023-05-27T05:25:56;15.30;99.90
23579;DHT22;11967;50.852;4.400;2023-05-27T05:28:31;15.30;99.90
23579;DHT22;11967;50.852;4.400;2023-05-27T05:30:57;15.30;99.90
23579;DHT22;11967;50.852;4.400;2023-05-27T05:33:22;15.20;99.90
23579;DHT22;11967;50.852;4.400;2023-05-27T05:35:49;15.30;99.90
23579;DHT22;11967;50.852;4.400;2023-05-27T05:38:14;15.30;99.90
23579;DHT22;11967;50.852;4.400;2023-05-27T05:40:40;15.30;99.90
23579;DHT22;11967;50.852;4.400;2023-05-27T05:43:06;15.30;99.90
23579;DHT22;11967;50.852;4.400;2023-05-27T05:45:31;15.30;99.90
23579;DHT22;11967;50.852;4.400;2023-05-27T05:47:57;15.30;99.90
23579;DHT22;11967;50.852;4.400;2023-05-27T05:50:23;15.40;99.90
23579;DHT22;11967;50.852;4.400;2023-05-27T05:52:48;15.40;99.90
23579;DHT22;11967;50.852;4.400;2023-05-27T05:55:14;15.40;99.90
23579;DHT22;11967;50.852;4.400;2023-05-27T05:57:40;15.40;99.90
23579;DHT22;11967;50.852;4.400;2023-05-27T06:00:08;15.30;99.90
23579;DHT22;11967;50.852;4.400;2023-05-27T06:02:34;15.40;99.90
23579;DHT22;11967;50.852;4.400;2023-05-27T06:04:59;15.40;99.90
23579;DHT22;11967;50.852;4.400;2023-05-27T06:07:25;15.40;99.90
23579;DHT22;11967;50.852;4.400;2023-05-27T06:09:53;15.40;99.90
23579;DHT22;11967;50.852;4.400;2023-05-27T06:12:28;15.50;99.90
23579;DHT22;11967;50.852;4.400;2023-05-27T06:14:56;15.50;99.90
23579;DHT22;11967;50.852;4.400;2023-05-27T06:17:21;15.60;99.90
23579;DHT22;11967;50.852;4.400;2023-05-27T06:19:47;15.60;99.90
23579;DHT22;11967;50.852;4.400;2023-05-27T06:22:12;15.70;99.90
23579;DHT22;11967;50.852;4.400;2023-05-27T06:24:38;15.70;99.90
23579;DHT22;11967;50.852;4.400;2023-05-27T06:27:04;15.70;99.90
23579;DHT22;11967;50.852;4.400;2023-05-27T06:29:29;15.80;99.90
23579;DHT22;11967;50.852;4.400;2023-05-27T06:31:55;15.70;99.90
23579;DHT22;11967;50.852;4.400;2023-05-27T06:34:20;15.80;99.90
23579;DHT22;11967;50.852;4.400;2023-05-27T06:36:46;15.80;99.90
23579;DHT22;11967;50.852;4.400;2023-05-27T06:39:15;15.80;99.90
23579;DHT22;11967;50.852;4.400;2023-05-27T06:41:41;15.90;99.90
23579;DHT22;11967;50.852;4.400;2023-05-27T06:44:07;15.90;99.90
23579;DHT22;11967;50.852;4.400;2023-05-27T06:46:32;15.90;99.90
23579;DHT22;11967;50.852;4.400;2023-05-27T06:48:58;16.00;99.90
23579;DHT22;11967;50.852;4.400;2023-05-27T06:51:23;16.00;99.90
23579;DHT22;11967;50.852;4.400;2023-05-27T06:53:49;16.00;99.90
23579;DHT22;11967;50.852;4.400;2023-05-27T06:56:15;16.00;99.90
23579;DHT22;11967;50.852;4.400;2023-05-27T06:58:41;16.10;99.90
23579;DHT22;11967;50.852;4.400;2023-05-27T07:01:06;16.10;99.90
23579;DHT22;11967;50.852;4.400;2023-05-27T07:03:32;16.20;99.90
23579;DHT22;11967;50.852;4.400;2023-05-27T07:05:58;16.30;99.90
23579;DHT22;11967;50.852;4.400;2023-05-27T07:08:24;16.30;99.90
23579;DHT22;11967;50.852;4.400;2023-05-27T07:10:49;16.40;99.90
23579;DHT22;11967;50.852;4.400;2023-05-27T07:13:15;16.50;99.90
23579;DHT22;11967;50.852;4.400;2023-05-27T07:15:42;16.60;99.90
23579;DHT22;11967;50.852;4.400;2023-05-27T07:18:07;16.60;99.90
23579;DHT22;11967;50.852;4.400;2023-05-27T07:20:33;16.60;99.90
23579;DHT22;11967;50.852;4.400;2023-05-27T07:23:00;16.70;99.90
23579;DHT22;11967;50.852;4.400;2023-05-27T07:25:25;16.80;99.90
23579;DHT22;11967;50.852;4.400;2023-05-27T07:27:51;16.80;99.90
23579;DHT22;11967;50.852;4.400;2023-05-27T07:30:17;16.80;99.90
23579;DHT22;11967;50.852;4.400;2023-05-27T07:32:43;17.30;99.90
23579;DHT22;11967;50.852;4.400;2023-05-27T07:35:09;17.70;99.90
23579;DHT22;11967;50.852;4.400;2023-05-27T07:37:34;18.00;99.90
23579;DHT22;11967;50.852;4.400;2023-05-27T07:40:00;18.20;99.90
23579;DHT22;11967;50.852;4.400;2023-05-27T07:42:26;18.50;99.90
23579;DHT22;11967;50.852;4.400;2023-05-27T07:44:51;18.70;99.90
23579;DHT22;11967;50.852;4.400;2023-05-27T07:47:18;18.90;99.90
23579;DHT22;11967;50.852;4.400;2023-05-27T07:49:44;19.00;99.90
23579;DHT22;11967;50.852;4.400;2023-05-27T07:52:09;19.10;99.90
23579;DHT22;11967;50.852;4.400;2023-05-27T07:54:35;19.20;99.90
23579;DHT22;11967;50.852;4.400;2023-05-27T07:57:10;19.20;99.90
23579;DHT22;11967;50.852;4.400;2023-05-27T07:59:36;19.30;99.90
23579;DHT22;11967;50.852;4.400;2023-05-27T08:02:03;19.40;99.90
23579;DHT22;11967;50.852;4.400;2023-05-27T08:04:29;19.50;99.90
23579;DHT22;11967;50.852;4.400;2023-05-27T08:06:56;19.50;99.90
23579;DHT22;11967;50.852;4.400;2023-05-27T08:09:23;19.50;99.90
23579;DHT22;11967;50.852;4.400;2023-05-27T08:11:50;19.60;99.90
23579;DHT22;11967;50.852;4.400;2023-05-27T08:14:16;19.70;99.90
23579;DHT22;11967;50.852;4.400;2023-05-27T08:16:43;19.60;99.90
23579;DHT22;11967;50.852;4.400;2023-05-27T08:19:08;19.60;99.90
23579;DHT22;11967;50.852;4.400;2023-05-27T08:21:34;19.50;99.90
23579;DHT22;11967;50.852;4.400;2023-05-27T08:24:01;19.30;99.90
23579;DHT22;11967;50.852;4.400;2023-05-27T08:26:31;19.20;99.90
23579;DHT22;11967;50.852;4.400;2023-05-27T08:28:57;19.10;99.90
23579;DHT22;11967;50.852;4.400;2023-05-27T08:31:23;19.20;99.90
23579;DHT22;11967;50.852;4.400;2023-05-27T08:33:48;19.20;99.90
23579;DHT22;11967;50.852;4.400;2023-05-27T08:36:15;19.20;99.90
23579;DHT22;11967;50.852;4.400;2023-05-27T08:38:44;19.20;99.90
23579;DHT22;11967;50.852;4.400;2023-05-27T08:41:10;19.30;99.90
23579;DHT22;11967;50.852;4.400;2023-05-27T08:43:36;19.40;99.90
23579;DHT22;11967;50.852;4.400;2023-05-27T08:46:02;19.40;99.90
23579;DHT22;11967;50.852;4.400;2023-05-27T08:48:28;19.40;99.90
23579;DHT22;11967;50.852;4.400;2023-05-27T08:50:54;19.30;99.90
23579;DHT22;11967;50.852;4.400;2023-05-27T08:53:20;19.40;99.90
23579;DHT22;11967;50.852;4.400;2023-05-27T08:55:49;19.40;99.90
23579;DHT22;11967;50.852;4.400;2023-05-27T08:58:16;19.50;99.90
23579;DHT22;11967;50.852;4.400;2023-05-27T09:00:43;19.50;99.90
23579;DHT22;11967;50.852;4.400;2023-05-27T09:03:09;19.50;99.90
23579;DHT22;11967;50.852;4.400;2023-05-27T09:05:35;19.60;99.90
23579;DHT22;11967;50.852;4.400;2023-05-27T09:08:00;19.60;99.90
23579;DHT22;11967;50.852;4.400;2023-05-27T09:10:46;19.60;99.90
23579;DHT22;11967;50.852;4.400;2023-05-27T09:13:12;19.70;99.90
23579;DHT22;11967;50.852;4.400;2023-05-27T09:15:37;19.70;99.90
23579;DHT22;11967;50.852;4.400;2023-05-27T09:18:04;19.80;99.90
23579;DHT22;11967;50.852;4.400;2023-05-27T09:20:30;19.70;99.90
23579;DHT22;11967;50.852;4.400;2023-05-27T09:22:59;19.80;99.90
23579;DHT22;11967;50.852;4.400;2023-05-27T09:25:27;19.80;99.90
23579;DHT22;11967;50.852;4.400;2023-05-27T09:27:53;19.90;99.90
23579;DHT22;11967;50.852;4.400;2023-05-27T09:30:20;19.90;99.90
23579;DHT22;11967;50.852;4.400;2023-05-27T09:32:46;19.90;99.90
23579;DHT22;11967;50.852;4.400;2023-05-27T09:35:12;20.10;99.90
23579;DHT22;11967;50.852;4.400;2023-05-27T09:37:38;20.10;99.90
23579;DHT22;11967;50.852;4.400;2023-05-27T09:40:08;20.20;99.90
23579;DHT22;11967;50.852;4.400;2023-05-27T09:42:40;20.20;99.90
23579;DHT22;11967;50.852;4.400;2023-05-27T09:45:10;20.20;99.90
23579;DHT22;11967;50.852;4.400;2023-05-27T09:47:48;20.20;99.90
23579;DHT22;11967;50.852;4.400;2023-05-27T09:50:13;20.20;99.90
23579;DHT22;11967;50.852;4.400;2023-05-27T09:52:44;20.30;99.90
23579;DHT22;11967;50.852;4.400;2023-05-27T09:55:11;20.30;99.90
23579;DHT22;11967;50.852;4.400;2023-05-27T09:57:38;20.40;99.90
23579;DHT22;11967;50.852;4.400;2023-05-27T10:00:10;20.50;99.90
23579;DHT22;11967;50.852;4.400;2023-05-27T10:02:47;20.60;99.90
23579;DHT22;11967;50.852;4.400;2023-05-27T10:05:15;20.60;99.90
23579;DHT22;11967;50.852;4.400;2023-05-27T10:07:43;20.70;99.90
23579;DHT22;11967;50.852;4.400;2023-05-27T10:10:12;20.70;99.90
23579;DHT22;11967;50.852;4.400;2023-05-27T10:12:48;20.80;99.90
23579;DHT22;11967;50.852;4.400;2023-05-27T10:15:29;21.00;99.90
23579;DHT22;11967;50.852;4.400;2023-05-27T10:18:00;21.00;99.90
23579;DHT22;11967;50.852;4.400;2023-05-27T10:20:42;21.00;99.90
23579;DHT22;11967;50.852;4.400;2023-05-27T10:25:55;21.10;99.90
23579;DHT22;11967;50.852;4.400;2023-05-27T10:28:38;21.20;99.90
23579;DHT22;11967;50.852;4.400;2023-05-27T10:33:38;21.30;99.90
23579;DHT22;11967;50.852;4.400;2023-05-27T10:36:07;21.40;99.90
23579;DHT22;11967;50.852;4.400;2023-05-27T10:38:33;21.40;99.90
23579;DHT22;11967;50.852;4.400;2023-05-27T10:41:00;21.30;99.90
23579;DHT22;11967;50.852;4.400;2023-05-27T10:43:28;21.30;99.90
23579;DHT22;11967;50.852;4.400;2023-05-27T10:48:32;21.30;99.90
23579;DHT22;11967;50.852;4.400;2023-05-27T10:50:59;21.30;99.90
23579;DHT22;11967;50.852;4.400;2023-05-27T10:53:29;21.40;99.90
23579;DHT22;11967;50.852;4.400;2023-05-27T10:56:00;21.40;99.90
23579;DHT22;11967;50.852;4.400;2023-05-27T10:58:26;21.40;99.90
23579;DHT22;11967;50.852;4.400;2023-05-27T11:00:53;21.40;99.90
23579;DHT22;11967;50.852;4.400;2023-05-27T11:03:20;21.60;99.90
23579;DHT22;11967;50.852;4.400;2023-05-27T11:06:05;21.70;99.90
23579;DHT22;11967;50.852;4.400;2023-05-27T11:08:35;21.80;99.90
23579;DHT22;11967;50.852;4.400;2023-05-27T11:11:07;21.70;99.90
23579;DHT22;11967;50.852;4.400;2023-05-27T11:13:39;21.70;99.90
23579;DHT22;11967;50.852;4.400;2023-05-27T11:16:06;21.70;99.90
23579;DHT22;11967;50.852;4.400;2023-05-27T11:18:37;21.70;99.90
23579;DHT22;11967;50.852;4.400;2023-05-27T11:21:02;21.70;99.90
23579;DHT22;11967;50.852;4.400;2023-05-27T11:23:42;21.90;99.90
23579;DHT22;11967;50.852;4.400;2023-05-27T11:26:21;21.90;99.90
23579;DHT22;11967;50.852;4.400;2023-05-27T11:28:48;22.00;99.90
23579;DHT22;11967;50.852;4.400;2023-05-27T11:31:14;22.00;99.90
23579;DHT22;11967;50.852;4.400;2023-05-27T11:33:42;22.00;99.90
23579;DHT22;11967;50.852;4.400;2023-05-27T11:36:12;22.10;99.90
23579;DHT22;11967;50.852;4.400;2023-05-27T11:39:00;22.30;99.90
23579;DHT22;11967;50.852;4.400;2023-05-27T11:41:28;22.20;99.90
23579;DHT22;11967;50.852;4.400;2023-05-27T11:43:57;22.10;99.90
23579;DHT22;11967;50.852;4.400;2023-05-27T11:46:40;22.30;99.90
23579;DHT22;11967;50.852;4.400;2023-05-27T11:49:07;22.40;99.90
23579;DHT22;11967;50.852;4.400;2023-05-27T11:51:42;22.40;99.90
23579;DHT22;11967;50.852;4.400;2023-05-27T11:54:27;22.40;99.90
23579;DHT22;11967;50.852;4.400;2023-05-27T11:56:54;22.40;99.90
23579;DHT22;11967;50.852;4.400;2023-05-27T11:59:22;22.40;99.90
23579;DHT22;11967;50.852;4.400;2023-05-27T12:01:48;22.50;99.90
23579;DHT22;11967;50.852;4.400;2023-05-27T12:04:15;22.50;99.90
23579;DHT22;11967;50.852;4.400;2023-05-27T12:06:40;22.50;99.90
23579;DHT22;11967;50.852;4.400;2023-05-27T12:09:07;22.60;99.90
23579;DHT22;11967;50.852;4.400;2023-05-27T12:11:36;22.60;99.90
23579;DHT22;11967;50.852;4.400;2023-05-27T12:14:03;22.60;99.90
23579;DHT22;11967;50.852;4.400;2023-05-27T12:16:29;22.60;99.90
23579;DHT22;11967;50.852;4.400;2023-05-27T12:18:55;22.70;99.90
23579;DHT22;11967;50.852;4.400;2023-05-27T12:21:21;22.60;99.90
23579;DHT22;11967;50.852;4.400;2023-05-27T12:23:47;22.70;99.90
23579;DHT22;11967;50.852;4.400;2023-05-27T12:26:14;22.80;99.90
23579;DHT22;11967;50.852;4.400;2023-05-27T12:28:40;22.80;99.90
23579;DHT22;11967;50.852;4.400;2023-05-27T12:31:06;22.90;99.50
23579;DHT22;11967;50.852;4.400;2023-05-27T12:33:32;22.80;98.70
23579;DHT22;11967;50.852;4.400;2023-05-27T12:35:58;22.80;99.10
23579;DHT22;11967;50.852;4.400;2023-05-27T12:38:25;22.90;98.40
23579;DHT22;11967;50.852;4.400;2023-05-27T12:40:51;22.90;97.90
23579;DHT22;11967;50.852;4.400;2023-05-27T12:43:20;23.00;97.60
23579;DHT22;11967;50.852;4.400;2023-05-27T12:45:46;23.10;97.00
23579;DHT22;11967;50.852;4.400;2023-05-27T12:48:12;23.00;96.70
23579;DHT22;11967;50.852;4.400;2023-05-27T12:50:38;23.00;97.00
23579;DHT22;11967;50.852;4.400;2023-05-27T12:53:03;23.10;96.30
23579;DHT22;11967;50.852;4.400;2023-05-27T12:55:29;23.00;96.40
23579;DHT22;11967;50.852;4.400;2023-05-27T12:57:55;23.00;96.30
23579;DHT22;11967;50.852;4.400;2023-05-27T13:00:21;23.00;95.40
23579;DHT22;11967;50.852;4.400;2023-05-27T13:02:47;23.00;95.00
23579;DHT22;11967;50.852;4.400;2023-05-27T13:05:14;23.10;95.00
23579;DHT22;11967;50.852;4.400;2023-05-27T13:07:40;23.20;94.30
23579;DHT22;11967;50.852;4.400;2023-05-27T13:10:11;23.20;93.70
23579;DHT22;11967;50.852;4.400;2023-05-27T13:12:39;23.10;93.00
23579;DHT22;11967;50.852;4.400;2023-05-27T13:15:05;23.10;93.30
23579;DHT22;11967;50.852;4.400;2023-05-27T13:17:33;23.20;92.80
23579;DHT22;11967;50.852;4.400;2023-05-27T13:19:59;23.20;92.60
23579;DHT22;11967;50.852;4.400;2023-05-27T13:22:29;23.20;93.10
23579;DHT22;11967;50.852;4.400;2023-05-27T13:24:55;23.20;93.70
23579;DHT22;11967;50.852;4.400;2023-05-27T13:27:21;23.20;94.10
23579;DHT22;11967;50.852;4.400;2023-05-27T13:29:47;23.30;93.70
23579;DHT22;11967;50.852;4.400;2023-05-27T13:32:12;23.30;92.30
23579;DHT22;11967;50.852;4.400;2023-05-27T13:34:38;23.20;91.30
23579;DHT22;11967;50.852;4.400;2023-05-27T13:37:04;23.20;90.90
23579;DHT22;11967;50.852;4.400;2023-05-27T13:39:30;23.20;91.30
23579;DHT22;11967;50.852;4.400;2023-05-27T13:41:56;23.20;91.20
23579;DHT22;11967;50.852;4.400;2023-05-27T13:44:22;23.30;91.50
23579;DHT22;11967;50.852;4.400;2023-05-27T13:46:50;23.40;92.10
23579;DHT22;11967;50.852;4.400;2023-05-27T13:49:16;23.50;92.30
23579;DHT22;11967;50.852;4.400;2023-05-27T13:51:45;23.70;92.10
23579;DHT22;11967;50.852;4.400;2023-05-27T13:54:11;23.70;91.80
23579;DHT22;11967;50.852;4.400;2023-05-27T13:56:38;23.60;91.80
23579;DHT22;11967;50.852;4.400;2023-05-27T13:59:04;23.60;92.30
23579;DHT22;11967;50.852;4.400;2023-05-27T14:01:31;23.60;91.70
23579;DHT22;11967;50.852;4.400;2023-05-27T14:03:57;23.50;91.70
23579;DHT22;11967;50.852;4.400;2023-05-27T14:06:22;23.50;91.60
23579;DHT22;11967;50.852;4.400;2023-05-27T14:08:48;23.50;91.80
23579;DHT22;11967;50.852;4.400;2023-05-27T14:11:14;23.60;91.20
23579;DHT22;11967;50.852;4.400;2023-05-27T14:13:41;23.60;90.80
23579;DHT22;11967;50.852;4.400;2023-05-27T14:16:06;23.50;90.70
23579;DHT22;11967;50.852;4.400;2023-05-27T14:18:32;23.60;90.70
23579;DHT22;11967;50.852;4.400;2023-05-27T14:20:58;23.60;90.60
23579;DHT22;11967;50.852;4.400;2023-05-27T14:23:23;23.70;91.20
23579;DHT22;11967;50.852;4.400;2023-05-27T14:25:49;23.60;90.30
23579;DHT22;11967;50.852;4.400;2023-05-27T14:28:16;23.60;90.00
23579;DHT22;11967;50.852;4.400;2023-05-27T14:30:41;23.60;89.80
23579;DHT22;11967;50.852;4.400;2023-05-27T14:33:07;23.70;89.30
23579;DHT22;11967;50.852;4.400;2023-05-27T14:35:34;23.70;86.70
23579;DHT22;11967;50.852;4.400;2023-05-27T14:38:00;23.70;86.60
23579;DHT22;11967;50.852;4.400;2023-05-27T14:40:26;23.70;86.90
23579;DHT22;11967;50.852;4.400;2023-05-27T14:42:52;23.70;87.10
23579;DHT22;11967;50.852;4.400;2023-05-27T14:45:18;23.70;87.60
23579;DHT22;11967;50.852;4.400;2023-05-27T14:47:46;23.70;87.20
23579;DHT22;11967;50.852;4.400;2023-05-27T14:50:12;23.70;86.90
23579;DHT22;11967;50.852;4.400;2023-05-27T14:52:37;23.70;87.70
23579;DHT22;11967;50.852;4.400;2023-05-27T14:55:04;23.80;88.50
23579;DHT22;11967;50.852;4.400;2023-05-27T14:57:31;23.90;88.00
23579;DHT22;11967;50.852;4.400;2023-05-27T15:00:00;23.90;88.30
23579;DHT22;11967;50.852;4.400;2023-05-27T15:02:26;23.80;88.00
23579;DHT22;11967;50.852;4.400;2023-05-27T15:04:51;23.70;87.70
23579;DHT22;11967;50.852;4.400;2023-05-27T15:07:17;23.80;86.00
23579;DHT22;11967;50.852;4.400;2023-05-27T15:09:44;23.80;86.30
23579;DHT22;11967;50.852;4.400;2023-05-27T15:12:10;23.80;86.10
23579;DHT22;11967;50.852;4.400;2023-05-27T15:14:36;23.80;85.70
23579;DHT22;11967;50.852;4.400;2023-05-27T15:17:01;23.80;86.20
23579;DHT22;11967;50.852;4.400;2023-05-27T15:19:29;23.70;84.90
23579;DHT22;11967;50.852;4.400;2023-05-27T15:21:56;23.70;84.30
23579;DHT22;11967;50.852;4.400;2023-05-27T15:24:21;23.80;84.80
23579;DHT22;11967;50.852;4.400;2023-05-27T15:26:47;23.80;84.90
23579;DHT22;11967;50.852;4.400;2023-05-27T15:29:14;23.80;84.30
23579;DHT22;11967;50.852;4.400;2023-05-27T15:31:39;23.80;85.00
23579;DHT22;11967;50.852;4.400;2023-05-27T15:34:07;23.80;85.50
23579;DHT22;11967;50.852;4.400;2023-05-27T15:36:32;23.80;85.50
23579;DHT22;11967;50.852;4.400;2023-05-27T15:38:59;23.90;84.90
23579;DHT22;11967;50.852;4.400;2023-05-27T15:41:25;23.80;84.20
23579;DHT22;11967;50.852;4.400;2023-05-27T15:43:51;23.70;82.80
23579;DHT22;11967;50.852;4.400;2023-05-27T15:46:17;23.70;82.90